Cantil, CA (93519)

2:44 PM PST on January 21, 2017 (GMT -0800)
MAU205 | | Change Station

Elev 2158 ft 35.30 °N, 118.00 °W | Updated 39 minutes ago

Partly Cloudy
Partly Cloudy
51.0 °F
Feels Like 51.0 °F
N
13.0
Wind Variable Wind from North
Gusts 22.0 mph

Today
High -- | Low -- °F
--% Chance of Precip.
Yesterday
High -- | Low -- °F
Precip. -- in
Pressure 29.86 in
Visibility 10.0 miles
Clouds Clear
Dew Point 35 °F
Humidity 55%
Rainfall 0.04 in
Snow Depth Not available.
6:57 AM 5:09 PM
Waning Crescent, 31% visible
METAR KMHV 212220Z AUTO 25020G28KT 10SM CLR 09/01 A2986 RMK A01
Pressure 29.86 in
Visibility 10.0 miles
Clouds Clear
Dew Point 35 °F
Humidity 55%
Rainfall 0.04 in
Snow Depth Not available.
6:57 AM 5:09 PM
Waning Crescent, 31% visible
METAR KMHV 212220Z AUTO 25020G28KT 10SM CLR 09/01 A2986 RMK A01

Get Your Daily Forecast Email!

Thanks for signing up!

Be on the lookout for a verification email in your inbox.

You'll start receiving the daily forecast at 8 AM.

×

10-Day Weather Forecast

Almanac

Astronomy

Jan. 21, 2017 Rise Set
Actual Time
Civil Twilight
Nautical Twilight
Astronomical Twilight
Moon
Length of Visible Light
Length of Day
Tomorrow will be .
, % of the Moon is Illuminated

Today's Extremes

State Highs State Lows

Community

WunderPhotos

Upload Photos

1,962,540 photos uploaded!

WunderBlog® & News

Nearby

Air Quality

  Air Quality AQ Index Pollutant
Not available.

Snow Depth

Station Depth Elevation

Earthquake Activity

City Distance Mag. Time & Date
Minimum magnitude displayed is 2.5.

Coastal Water Temperatures

Place Temperature

Stations

Nearby Weather Stations

Station Location Temp. Windchill Dew Point Humidity Wind Precip. Elev Updated Type
                   

Watches & Warnings

Small Craft Advisory, Gale Warning
Issued: 2:14 PM PST Jan. 21, 2017 – National Weather Service

... Small Craft Advisory now in effect until 6 am PST Sunday...
... Gale Warning in effect from 6 am to 2 PM PST Sunday...

The National Weather Service in Los Angeles/Oxnard has issued a
Gale Warning... which is in effect from 6 am to 2 PM PST Sunday.

* Winds... south winds 20 to 30 kt with gusts to 40 kt are
expected when winds are strongest.

* Seas... combined seas of 15 to 23 feet with periods around 17
seconds are expected when waves are largest.

See the coastal waters forecast (cwflox) for more details.

Precautionary/preparedness actions...

A Gale Warning means winds of 34 to 47 knots are imminent or
occuring. Operating a vessel in gale conditions requires
experience and properly equipped vessels. It is highly
recommended that mariners without the proper experience seek safe
Harbor prior to the onset of gale conditions.

A Small Craft Advisory means that hazardous sea conditions will
exist for small craft. Inexperienced mariners... especially those
operating smaller vessels should avoid navigating in these
conditions.